Marysville, KS

12:52 PM CDT on September 04, 2015 (GMT -0500)
N0NB | | Change Station
CLOSE
Current Station
Personal Weather Station
Location: Bremen, KS
Elevation: 1318 ft
Nearby Weather Stations

Elev 1318 ft 39.91 °N, 96.77 °W | Updated 56 seconds ago

Partly Cloudy
Partly Cloudy
89.3 °F
Feels Like 94 °F
N
10.0
Wind Variable Wind from SSW
Gusts 14.0 mph

Today
High -- | Low -- °F
--% Chance of Precip.
Yesterday
High -- | Low -- °F
Precip. -- in
6:57 AM 7:53 PM
Waning Gibbous, 57% visible
Pressure 29.91 in
Visibility 10.0 miles
Clouds Clear
Heat Index 94 °F
Dew Point 69 °F
Humidity 51%
Rainfall 0.00 in
Snow Depth Not available.
UV 9 out of 12
Pollen 11.20 out of 12
Air Quality Not available.
Flu Activity Not available.
METAR KBIE 041735Z AUTO 18016G21KT 10SM CLR 31/20 A2991 RMK AO2 T03050200
Pressure 29.91 in
Visibility 10.0 miles
Clouds Clear
Heat Index 94 °F
Dew Point 69 °F
Humidity 51%
Rainfall 0.00 in
Snow Depth Not available.
UV 9 out of 12
Pollen 11.20 out of 12
Air Quality Not available.
Flu Activity Not available.
METAR KBIE 041735Z AUTO 18016G21KT 10SM CLR 31/20 A2991 RMK AO2 T03050200

10-Day Weather Forecast

×

Almanac

Astronomy

Sep. 04, 2015 Rise Set
Actual Time
Civil Twilight
Nautical Twilight
Astronomical Twilight
Moon
Length of Visible Light
Length of Day
Tomorrow will be .
, % of the Moon is Illuminated

Today's Extremes

State Highs State Lows

Community

WunderPhotos

Upload Photos

1,852,250 photos uploaded!

WunderBlogs® & News

Nearby

Air Quality

  Air Quality AQ Index Pollutant
Not available.

Snow Depth

Station Depth Elevation

Earthquake Activity

City Distance Mag. Time & Date
Minimum magnitude displayed is 2.5.

Coastal Water Temperatures

Place Temperature

Stations

Nearby Weather Stations

Station Location Temp. Windchill Dew Point Humidity Wind Precip. Elev Updated Type